sensor_id;sensor_type;location;lat;lon;timestamp;P1;durP1;ratioP1;P2;durP2;ratioP2
10226;SDS011;15634;48.766;2.272;2022-10-31T00:00:26;5.15;;;3.38;;
10226;SDS011;15634;48.766;2.272;2022-10-31T00:02:52;6.13;;;3.70;;
10226;SDS011;15634;48.766;2.272;2022-10-31T00:05:20;8.52;;;4.03;;
10226;SDS011;15634;48.766;2.272;2022-10-31T00:07:47;8.90;;;4.15;;
10226;SDS011;15634;48.766;2.272;2022-10-31T00:10:13;7.35;;;3.60;;
10226;SDS011;15634;48.766;2.272;2022-10-31T00:12:40;7.47;;;3.55;;
10226;SDS011;15634;48.766;2.272;2022-10-31T00:15:07;7.53;;;3.38;;
10226;SDS011;15634;48.766;2.272;2022-10-31T00:17:34;6.35;;;3.40;;
10226;SDS011;15634;48.766;2.272;2022-10-31T00:20:01;4.85;;;2.88;;
10226;SDS011;15634;48.766;2.272;2022-10-31T00:22:29;7.85;;;3.53;;
10226;SDS011;15634;48.766;2.272;2022-10-31T00:24:55;7.00;;;3.53;;
10226;SDS011;15634;48.766;2.272;2022-10-31T00:27:22;5.97;;;3.33;;
10226;SDS011;15634;48.766;2.272;2022-10-31T00:29:48;6.80;;;3.30;;
10226;SDS011;15634;48.766;2.272;2022-10-31T00:32:15;6.88;;;2.88;;
10226;SDS011;15634;48.766;2.272;2022-10-31T00:34:41;6.20;;;3.30;;
10226;SDS011;15634;48.766;2.272;2022-10-31T00:37:08;4.18;;;3.20;;
10226;SDS011;15634;48.766;2.272;2022-10-31T00:39:36;6.90;;;3.60;;
10226;SDS011;15634;48.766;2.272;2022-10-31T00:42:02;7.93;;;3.40;;
10226;SDS011;15634;48.766;2.272;2022-10-31T00:44:29;7.13;;;3.38;;
10226;SDS011;15634;48.766;2.272;2022-10-31T00:46:56;6.88;;;3.25;;
10226;SDS011;15634;48.766;2.272;2022-10-31T00:49:22;6.95;;;3.58;;
10226;SDS011;15634;48.766;2.272;2022-10-31T00:51:49;8.32;;;3.50;;
10226;SDS011;15634;48.766;2.272;2022-10-31T00:54:15;6.18;;;3.00;;
10226;SDS011;15634;48.766;2.272;2022-10-31T00:56:43;6.55;;;3.45;;
10226;SDS011;15634;48.766;2.272;2022-10-31T00:59:10;8.20;;;3.88;;
10226;SDS011;15634;48.766;2.272;2022-10-31T01:01:36;5.28;;;3.20;;
10226;SDS011;15634;48.766;2.272;2022-10-31T01:04:03;7.38;;;3.17;;
10226;SDS011;15634;48.766;2.272;2022-10-31T01:06:30;5.78;;;3.15;;
10226;SDS011;15634;48.766;2.272;2022-10-31T01:08:56;6.28;;;3.05;;
10226;SDS011;15634;48.766;2.272;2022-10-31T01:11:23;7.97;;;3.15;;
10226;SDS011;15634;48.766;2.272;2022-10-31T01:13:51;6.18;;;3.20;;
10226;SDS011;15634;48.766;2.272;2022-10-31T01:16:19;5.95;;;3.05;;
10226;SDS011;15634;48.766;2.272;2022-10-31T01:18:47;6.30;;;3.30;;
10226;SDS011;15634;48.766;2.272;2022-10-31T01:21:15;6.78;;;3.10;;
10226;SDS011;15634;48.766;2.272;2022-10-31T01:23:43;4.85;;;2.88;;
10226;SDS011;15634;48.766;2.272;2022-10-31T01:26:12;5.53;;;3.22;;
10226;SDS011;15634;48.766;2.272;2022-10-31T01:28:43;4.93;;;2.90;;
10226;SDS011;15634;48.766;2.272;2022-10-31T01:31:12;6.65;;;3.20;;
10226;SDS011;15634;48.766;2.272;2022-10-31T01:33:39;5.68;;;3.58;;
10226;SDS011;15634;48.766;2.272;2022-10-31T01:36:15;6.75;;;3.28;;
10226;SDS011;15634;48.766;2.272;2022-10-31T01:38:43;5.82;;;3.40;;
10226;SDS011;15634;48.766;2.272;2022-10-31T01:41:10;5.47;;;3.30;;
10226;SDS011;15634;48.766;2.272;2022-10-31T01:43:48;8.20;;;3.40;;
10226;SDS011;15634;48.766;2.272;2022-10-31T01:46:19;5.25;;;3.10;;
10226;SDS011;15634;48.766;2.272;2022-10-31T01:48:48;6.57;;;3.40;;
10226;SDS011;15634;48.766;2.272;2022-10-31T01:51:14;7.50;;;3.42;;
10226;SDS011;15634;48.766;2.272;2022-10-31T01:53:42;5.22;;;3.13;;
10226;SDS011;15634;48.766;2.272;2022-10-31T01:56:10;5.50;;;3.40;;
10226;SDS011;15634;48.766;2.272;2022-10-31T01:58:38;9.50;;;3.35;;
10226;SDS011;15634;48.766;2.272;2022-10-31T02:01:05;5.22;;;3.20;;
10226;SDS011;15634;48.766;2.272;2022-10-31T02:03:33;6.50;;;3.22;;
10226;SDS011;15634;48.766;2.272;2022-10-31T02:06:00;6.43;;;3.13;;
10226;SDS011;15634;48.766;2.272;2022-10-31T02:08:28;7.10;;;3.15;;
10226;SDS011;15634;48.766;2.272;2022-10-31T02:10:56;11.52;;;3.47;;
10226;SDS011;15634;48.766;2.272;2022-10-31T02:13:23;3.90;;;3.00;;
10226;SDS011;15634;48.766;2.272;2022-10-31T02:15:51;6.18;;;3.25;;
10226;SDS011;15634;48.766;2.272;2022-10-31T02:18:20;6.05;;;3.50;;
10226;SDS011;15634;48.766;2.272;2022-10-31T02:20:57;8.00;;;3.70;;
10226;SDS011;15634;48.766;2.272;2022-10-31T02:26:45;6.05;;;3.28;;
10226;SDS011;15634;48.766;2.272;2022-10-31T02:32:31;6.07;;;3.53;;
10226;SDS011;15634;48.766;2.272;2022-10-31T02:35:05;6.57;;;3.50;;
10226;SDS011;15634;48.766;2.272;2022-10-31T02:37:36;5.75;;;3.30;;
10226;SDS011;15634;48.766;2.272;2022-10-31T02:40:05;5.10;;;3.10;;
10226;SDS011;15634;48.766;2.272;2022-10-31T02:42:39;5.95;;;3.30;;
10226;SDS011;15634;48.766;2.272;2022-10-31T02:45:11;6.67;;;3.40;;
10226;SDS011;15634;48.766;2.272;2022-10-31T02:47:41;6.90;;;3.00;;
10226;SDS011;15634;48.766;2.272;2022-10-31T02:50:11;6.82;;;3.70;;
10226;SDS011;15634;48.766;2.272;2022-10-31T02:52:40;7.15;;;3.45;;
10226;SDS011;15634;48.766;2.272;2022-10-31T02:55:10;6.75;;;2.97;;
10226;SDS011;15634;48.766;2.272;2022-10-31T02:57:38;6.35;;;3.00;;
10226;SDS011;15634;48.766;2.272;2022-10-31T03:00:06;5.68;;;3.20;;
10226;SDS011;15634;48.766;2.272;2022-10-31T03:02:39;5.35;;;3.00;;
10226;SDS011;15634;48.766;2.272;2022-10-31T03:05:19;4.80;;;2.83;;
10226;SDS011;15634;48.766;2.272;2022-10-31T03:07:59;5.38;;;2.83;;
10226;SDS011;15634;48.766;2.272;2022-10-31T03:10:31;5.40;;;3.08;;
10226;SDS011;15634;48.766;2.272;2022-10-31T03:13:05;5.82;;;2.88;;
10226;SDS011;15634;48.766;2.272;2022-10-31T03:15:36;5.70;;;3.03;;
10226;SDS011;15634;48.766;2.272;2022-10-31T03:18:06;4.43;;;3.00;;
10226;SDS011;15634;48.766;2.272;2022-10-31T03:20:35;4.82;;;2.80;;
10226;SDS011;15634;48.766;2.272;2022-10-31T03:23:04;7.07;;;3.42;;
10226;SDS011;15634;48.766;2.272;2022-10-31T03:25:33;5.90;;;3.50;;
10226;SDS011;15634;48.766;2.272;2022-10-31T03:28:01;6.40;;;3.30;;
10226;SDS011;15634;48.766;2.272;2022-10-31T03:30:28;6.25;;;3.60;;
10226;SDS011;15634;48.766;2.272;2022-10-31T03:32:55;9.30;;;3.33;;
10226;SDS011;15634;48.766;2.272;2022-10-31T03:35:23;6.72;;;2.70;;
10226;SDS011;15634;48.766;2.272;2022-10-31T03:37:52;6.30;;;3.22;;
10226;SDS011;15634;48.766;2.272;2022-10-31T03:40:20;7.93;;;3.47;;
10226;SDS011;15634;48.766;2.272;2022-10-31T03:42:50;5.80;;;3.30;;
10226;SDS011;15634;48.766;2.272;2022-10-31T03:45:19;6.88;;;3.05;;
10226;SDS011;15634;48.766;2.272;2022-10-31T03:47:49;4.82;;;3.15;;
10226;SDS011;15634;48.766;2.272;2022-10-31T03:50:15;5.55;;;3.17;;
10226;SDS011;15634;48.766;2.272;2022-10-31T03:52:44;6.15;;;3.40;;
10226;SDS011;15634;48.766;2.272;2022-10-31T03:55:16;5.63;;;3.38;;
10226;SDS011;15634;48.766;2.272;2022-10-31T03:57:45;5.60;;;3.47;;
10226;SDS011;15634;48.766;2.272;2022-10-31T04:00:15;5.40;;;3.72;;
10226;SDS011;15634;48.766;2.272;2022-10-31T04:02:43;11.88;;;3.28;;
10226;SDS011;15634;48.766;2.272;2022-10-31T04:05:13;6.30;;;3.83;;
10226;SDS011;15634;48.766;2.272;2022-10-31T04:07:41;7.85;;;3.85;;
10226;SDS011;15634;48.766;2.272;2022-10-31T04:10:12;6.68;;;4.47;;
10226;SDS011;15634;48.766;2.272;2022-10-31T04:12:40;6.70;;;4.07;;
10226;SDS011;15634;48.766;2.272;2022-10-31T04:15:08;8.15;;;3.80;;
10226;SDS011;15634;48.766;2.272;2022-10-31T04:17:37;6.53;;;3.90;;
10226;SDS011;15634;48.766;2.272;2022-10-31T04:20:06;7.22;;;3.63;;
10226;SDS011;15634;48.766;2.272;2022-10-31T04:22:33;7.75;;;4.25;;
10226;SDS011;15634;48.766;2.272;2022-10-31T04:25:01;5.65;;;4.00;;
10226;SDS011;15634;48.766;2.272;2022-10-31T04:27:27;10.30;;;5.22;;
10226;SDS011;15634;48.766;2.272;2022-10-31T04:29:54;8.32;;;4.30;;
10226;SDS011;15634;48.766;2.272;2022-10-31T04:32:20;6.90;;;4.30;;
10226;SDS011;15634;48.766;2.272;2022-10-31T04:34:47;11.18;;;5.75;;
10226;SDS011;15634;48.766;2.272;2022-10-31T04:37:13;9.10;;;5.93;;
10226;SDS011;15634;48.766;2.272;2022-10-31T04:39:40;11.40;;;5.78;;
10226;SDS011;15634;48.766;2.272;2022-10-31T04:42:08;11.82;;;6.10;;
10226;SDS011;15634;48.766;2.272;2022-10-31T04:44:34;12.30;;;6.78;;
10226;SDS011;15634;48.766;2.272;2022-10-31T04:47:01;10.30;;;5.95;;
10226;SDS011;15634;48.766;2.272;2022-10-31T04:49:27;7.45;;;5.50;;
10226;SDS011;15634;48.766;2.272;2022-10-31T04:51:54;10.93;;;6.55;;
10226;SDS011;15634;48.766;2.272;2022-10-31T04:54:21;10.48;;;6.53;;
10226;SDS011;15634;48.766;2.272;2022-10-31T04:56:47;10.05;;;6.30;;
10226;SDS011;15634;48.766;2.272;2022-10-31T04:59:15;13.75;;;6.38;;
10226;SDS011;15634;48.766;2.272;2022-10-31T05:01:42;10.40;;;6.53;;
10226;SDS011;15634;48.766;2.272;2022-10-31T05:04:08;10.68;;;6.72;;
10226;SDS011;15634;48.766;2.272;2022-10-31T05:06:35;9.95;;;6.30;;
10226;SDS011;15634;48.766;2.272;2022-10-31T05:09:01;12.05;;;6.72;;
10226;SDS011;15634;48.766;2.272;2022-10-31T05:11:28;10.35;;;6.40;;
10226;SDS011;15634;48.766;2.272;2022-10-31T05:13:54;10.45;;;6.47;;
10226;SDS011;15634;48.766;2.272;2022-10-31T05:16:22;8.77;;;5.75;;
10226;SDS011;15634;48.766;2.272;2022-10-31T05:18:49;10.80;;;6.15;;
10226;SDS011;15634;48.766;2.272;2022-10-31T05:21:15;9.93;;;5.90;;
10226;SDS011;15634;48.766;2.272;2022-10-31T05:23:42;12.18;;;6.03;;
10226;SDS011;15634;48.766;2.272;2022-10-31T05:26:08;12.32;;;6.47;;
10226;SDS011;15634;48.766;2.272;2022-10-31T05:28:35;9.32;;;6.28;;
10226;SDS011;15634;48.766;2.272;2022-10-31T05:31:01;11.43;;;6.15;;
10226;SDS011;15634;48.766;2.272;2022-10-31T05:33:29;10.60;;;6.57;;
10226;SDS011;15634;48.766;2.272;2022-10-31T05:35:56;12.18;;;6.20;;
10226;SDS011;15634;48.766;2.272;2022-10-31T05:38:22;11.63;;;6.05;;
10226;SDS011;15634;48.766;2.272;2022-10-31T05:40:49;12.75;;;6.30;;
10226;SDS011;15634;48.766;2.272;2022-10-31T05:43:15;9.68;;;6.18;;
10226;SDS011;15634;48.766;2.272;2022-10-31T05:45:42;10.40;;;6.22;;
10226;SDS011;15634;48.766;2.272;2022-10-31T05:48:08;14.10;;;6.43;;
10226;SDS011;15634;48.766;2.272;2022-10-31T05:50:37;12.07;;;6.65;;
10226;SDS011;15634;48.766;2.272;2022-10-31T05:53:04;9.35;;;6.35;;
10226;SDS011;15634;48.766;2.272;2022-10-31T05:55:31;11.38;;;6.57;;
10226;SDS011;15634;48.766;2.272;2022-10-31T05:57:58;12.15;;;7.30;;
10226;SDS011;15634;48.766;2.272;2022-10-31T06:00:25;15.73;;;7.15;;
10226;SDS011;15634;48.766;2.272;2022-10-31T06:02:57;13.52;;;6.57;;
10226;SDS011;15634;48.766;2.272;2022-10-31T06:05:23;12.90;;;7.40;;
10226;SDS011;15634;48.766;2.272;2022-10-31T06:07:51;10.65;;;6.93;;
10226;SDS011;15634;48.766;2.272;2022-10-31T06:10:18;10.02;;;6.65;;
10226;SDS011;15634;48.766;2.272;2022-10-31T06:12:45;11.02;;;6.25;;
10226;SDS011;15634;48.766;2.272;2022-10-31T06:15:12;15.13;;;7.13;;
10226;SDS011;15634;48.766;2.272;2022-10-31T06:17:39;9.60;;;6.55;;
10226;SDS011;15634;48.766;2.272;2022-10-31T06:20:06;12.73;;;7.60;;
10226;SDS011;15634;48.766;2.272;2022-10-31T06:22:33;12.32;;;6.38;;
10226;SDS011;15634;48.766;2.272;2022-10-31T06:25:02;11.68;;;7.20;;
10226;SDS011;15634;48.766;2.272;2022-10-31T06:27:29;11.35;;;6.75;;
10226;SDS011;15634;48.766;2.272;2022-10-31T06:29:55;13.95;;;7.22;;
10226;SDS011;15634;48.766;2.272;2022-10-31T06:32:22;12.75;;;7.15;;
10226;SDS011;15634;48.766;2.272;2022-10-31T06:34:48;13.50;;;6.80;;
10226;SDS011;15634;48.766;2.272;2022-10-31T06:37:15;11.90;;;6.78;;
10226;SDS011;15634;48.766;2.272;2022-10-31T06:39:42;12.57;;;6.70;;
10226;SDS011;15634;48.766;2.272;2022-10-31T06:42:09;10.43;;;7.22;;
10226;SDS011;15634;48.766;2.272;2022-10-31T06:44:36;10.60;;;6.85;;
10226;SDS011;15634;48.766;2.272;2022-10-31T06:47:03;11.25;;;6.53;;
10226;SDS011;15634;48.766;2.272;2022-10-31T06:49:29;13.45;;;6.55;;
10226;SDS011;15634;48.766;2.272;2022-10-31T06:51:56;12.25;;;6.70;;
10226;SDS011;15634;48.766;2.272;2022-10-31T06:54:22;11.57;;;6.70;;
10226;SDS011;15634;48.766;2.272;2022-10-31T06:56:49;10.43;;;6.45;;
10226;SDS011;15634;48.766;2.272;2022-10-31T06:59:17;11.32;;;6.65;;
10226;SDS011;15634;48.766;2.272;2022-10-31T07:01:44;12.40;;;6.45;;
10226;SDS011;15634;48.766;2.272;2022-10-31T07:04:11;11.52;;;6.95;;
10226;SDS011;15634;48.766;2.272;2022-10-31T07:06:38;11.30;;;7.00;;
10226;SDS011;15634;48.766;2.272;2022-10-31T07:09:04;11.27;;;7.40;;
10226;SDS011;15634;48.766;2.272;2022-10-31T07:11:31;12.70;;;7.13;;
10226;SDS011;15634;48.766;2.272;2022-10-31T07:13:57;11.18;;;7.13;;
10226;SDS011;15634;48.766;2.272;2022-10-31T07:16:25;16.77;;;6.88;;
10226;SDS011;15634;48.766;2.272;2022-10-31T07:18:52;11.10;;;7.05;;
10226;SDS011;15634;48.766;2.272;2022-10-31T07:21:18;17.70;;;7.97;;
10226;SDS011;15634;48.766;2.272;2022-10-31T07:23:46;13.60;;;6.55;;
10226;SDS011;15634;48.766;2.272;2022-10-31T07:26:13;10.73;;;6.82;;
10226;SDS011;15634;48.766;2.272;2022-10-31T07:28:40;13.32;;;6.78;;
10226;SDS011;15634;48.766;2.272;2022-10-31T07:31:06;12.85;;;6.53;;
10226;SDS011;15634;48.766;2.272;2022-10-31T07:33:34;13.35;;;6.70;;
10226;SDS011;15634;48.766;2.272;2022-10-31T07:36:01;16.95;;;7.32;;
10226;SDS011;15634;48.766;2.272;2022-10-31T07:38:27;12.48;;;7.65;;
10226;SDS011;15634;48.766;2.272;2022-10-31T07:40:54;14.05;;;8.30;;
10226;SDS011;15634;48.766;2.272;2022-10-31T07:43:20;13.48;;;7.03;;
10226;SDS011;15634;48.766;2.272;2022-10-31T07:45:50;11.35;;;6.32;;
10226;SDS011;15634;48.766;2.272;2022-10-31T07:48:18;13.75;;;7.20;;
10226;SDS011;15634;48.766;2.272;2022-10-31T07:50:45;15.90;;;7.22;;
10226;SDS011;15634;48.766;2.272;2022-10-31T07:53:12;11.65;;;7.10;;
10226;SDS011;15634;48.766;2.272;2022-10-31T07:55:40;12.25;;;6.82;;
10226;SDS011;15634;48.766;2.272;2022-10-31T07:58:07;10.32;;;6.72;;
10226;SDS011;15634;48.766;2.272;2022-10-31T08:00:35;15.05;;;7.03;;
10226;SDS011;15634;48.766;2.272;2022-10-31T08:03:03;14.27;;;6.93;;
10226;SDS011;15634;48.766;2.272;2022-10-31T08:05:31;14.93;;;7.15;;
10226;SDS011;15634;48.766;2.272;2022-10-31T08:07:59;14.02;;;7.55;;
10226;SDS011;15634;48.766;2.272;2022-10-31T08:10:26;13.90;;;6.93;;
10226;SDS011;15634;48.766;2.272;2022-10-31T08:12:56;14.07;;;6.95;;
10226;SDS011;15634;48.766;2.272;2022-10-31T08:15:23;14.50;;;7.57;;
10226;SDS011;15634;48.766;2.272;2022-10-31T08:17:51;13.98;;;7.07;;
10226;SDS011;15634;48.766;2.272;2022-10-31T08:20:17;14.60;;;7.93;;
10226;SDS011;15634;48.766;2.272;2022-10-31T08:22:52;14.75;;;7.70;;
10226;SDS011;15634;48.766;2.272;2022-10-31T08:25:21;16.92;;;8.02;;
10226;SDS011;15634;48.766;2.272;2022-10-31T08:27:49;16.58;;;7.70;;
10226;SDS011;15634;48.766;2.272;2022-10-31T08:30:16;14.07;;;7.32;;
10226;SDS011;15634;48.766;2.272;2022-10-31T08:32:43;14.48;;;7.85;;
10226;SDS011;15634;48.766;2.272;2022-10-31T08:35:10;14.45;;;8.65;;
10226;SDS011;15634;48.766;2.272;2022-10-31T08:37:36;20.58;;;9.88;;
10226;SDS011;15634;48.766;2.272;2022-10-31T08:40:03;18.83;;;8.90;;
10226;SDS011;15634;48.766;2.272;2022-10-31T08:42:32;15.32;;;9.57;;
10226;SDS011;15634;48.766;2.272;2022-10-31T08:44:59;22.30;;;9.75;;
10226;SDS011;15634;48.766;2.272;2022-10-31T08:47:26;20.95;;;9.80;;
10226;SDS011;15634;48.766;2.272;2022-10-31T08:49:52;24.20;;;10.70;;
10226;SDS011;15634;48.766;2.272;2022-10-31T08:52:21;18.35;;;10.48;;
10226;SDS011;15634;48.766;2.272;2022-10-31T08:54:48;19.30;;;10.50;;
10226;SDS011;15634;48.766;2.272;2022-10-31T08:57:15;24.00;;;10.65;;
10226;SDS011;15634;48.766;2.272;2022-10-31T08:59:43;28.05;;;11.95;;
10226;SDS011;15634;48.766;2.272;2022-10-31T09:02:09;25.15;;;11.90;;
10226;SDS011;15634;48.766;2.272;2022-10-31T09:04:36;21.98;;;11.57;;
10226;SDS011;15634;48.766;2.272;2022-10-31T09:07:02;22.77;;;10.45;;
10226;SDS011;15634;48.766;2.272;2022-10-31T09:09:29;24.05;;;11.00;;
10226;SDS011;15634;48.766;2.272;2022-10-31T09:11:55;28.58;;;11.10;;
10226;SDS011;15634;48.766;2.272;2022-10-31T09:14:23;20.80;;;10.65;;
10226;SDS011;15634;48.766;2.272;2022-10-31T09:16:52;21.60;;;11.95;;
10226;SDS011;15634;48.766;2.272;2022-10-31T09:19:18;22.15;;;11.40;;
10226;SDS011;15634;48.766;2.272;2022-10-31T09:21:45;26.00;;;11.30;;
10226;SDS011;15634;48.766;2.272;2022-10-31T09:24:11;24.02;;;11.93;;
10226;SDS011;15634;48.766;2.272;2022-10-31T09:26:38;20.63;;;10.65;;
10226;SDS011;15634;48.766;2.272;2022-10-31T09:29:04;17.13;;;10.57;;
10226;SDS011;15634;48.766;2.272;2022-10-31T09:31:31;26.30;;;12.75;;
10226;SDS011;15634;48.766;2.272;2022-10-31T09:33:59;22.63;;;11.63;;
10226;SDS011;15634;48.766;2.272;2022-10-31T09:36:25;19.45;;;10.43;;
10226;SDS011;15634;48.766;2.272;2022-10-31T09:38:52;22.25;;;10.55;;
10226;SDS011;15634;48.766;2.272;2022-10-31T09:41:19;19.77;;;10.60;;
10226;SDS011;15634;48.766;2.272;2022-10-31T09:43:50;24.92;;;11.23;;
10226;SDS011;15634;48.766;2.272;2022-10-31T09:46:25;20.65;;;10.10;;
10226;SDS011;15634;48.766;2.272;2022-10-31T09:49:04;20.42;;;10.48;;
10226;SDS011;15634;48.766;2.272;2022-10-31T09:51:43;19.98;;;10.48;;
10226;SDS011;15634;48.766;2.272;2022-10-31T09:54:12;19.95;;;11.10;;
10226;SDS011;15634;48.766;2.272;2022-10-31T09:56:41;22.60;;;10.43;;
10226;SDS011;15634;48.766;2.272;2022-10-31T09:59:11;20.92;;;9.55;;
10226;SDS011;15634;48.766;2.272;2022-10-31T10:01:40;18.85;;;9.48;;
10226;SDS011;15634;48.766;2.272;2022-10-31T10:04:15;20.33;;;9.30;;
10226;SDS011;15634;48.766;2.272;2022-10-31T10:06:47;21.65;;;9.38;;
10226;SDS011;15634;48.766;2.272;2022-10-31T10:09:15;21.27;;;10.23;;
10226;SDS011;15634;48.766;2.272;2022-10-31T10:11:46;18.50;;;9.15;;
10226;SDS011;15634;48.766;2.272;2022-10-31T10:14:21;20.30;;;9.00;;
10226;SDS011;15634;48.766;2.272;2022-10-31T10:17:02;17.08;;;9.48;;
10226;SDS011;15634;48.766;2.272;2022-10-31T10:19:41;19.33;;;9.48;;
10226;SDS011;15634;48.766;2.272;2022-10-31T10:22:20;16.25;;;8.95;;
10226;SDS011;15634;48.766;2.272;2022-10-31T10:24:53;20.13;;;9.45;;
10226;SDS011;15634;48.766;2.272;2022-10-31T10:27:27;16.63;;;9.00;;
10226;SDS011;15634;48.766;2.272;2022-10-31T10:30:01;18.58;;;9.02;;
10226;SDS011;15634;48.766;2.272;2022-10-31T10:32:34;17.55;;;8.68;;
10226;SDS011;15634;48.766;2.272;2022-10-31T10:35:07;16.85;;;8.73;;
10226;SDS011;15634;48.766;2.272;2022-10-31T10:37:39;17.20;;;8.43;;
10226;SDS011;15634;48.766;2.272;2022-10-31T10:40:08;23.52;;;8.15;;
10226;SDS011;15634;48.766;2.272;2022-10-31T10:42:39;17.50;;;8.43;;
10226;SDS011;15634;48.766;2.272;2022-10-31T10:45:38;14.85;;;8.15;;
10226;SDS011;15634;48.766;2.272;2022-10-31T10:48:24;19.77;;;7.88;;
10226;SDS011;15634;48.766;2.272;2022-10-31T10:50:58;15.50;;;7.78;;
10226;SDS011;15634;48.766;2.272;2022-10-31T10:53:29;15.05;;;7.75;;
10226;SDS011;15634;48.766;2.272;2022-10-31T10:56:07;16.25;;;7.53;;
10226;SDS011;15634;48.766;2.272;2022-10-31T10:58:38;20.20;;;7.40;;
10226;SDS011;15634;48.766;2.272;2022-10-31T11:01:08;17.27;;;7.25;;
10226;SDS011;15634;48.766;2.272;2022-10-31T11:03:36;17.75;;;7.13;;
10226;SDS011;15634;48.766;2.272;2022-10-31T11:06:15;16.65;;;7.05;;
10226;SDS011;15634;48.766;2.272;2022-10-31T11:08:42;14.23;;;7.30;;
10226;SDS011;15634;48.766;2.272;2022-10-31T11:11:10;17.25;;;7.28;;
10226;SDS011;15634;48.766;2.272;2022-10-31T11:13:44;16.95;;;7.22;;
10226;SDS011;15634;48.766;2.272;2022-10-31T11:16:13;13.63;;;6.32;;
10226;SDS011;15634;48.766;2.272;2022-10-31T11:18:42;14.27;;;7.18;;
10226;SDS011;15634;48.766;2.272;2022-10-31T11:21:20;16.55;;;7.18;;
10226;SDS011;15634;48.766;2.272;2022-10-31T11:23:48;14.85;;;6.13;;
10226;SDS011;15634;48.766;2.272;2022-10-31T11:26:18;13.25;;;6.25;;
10226;SDS011;15634;48.766;2.272;2022-10-31T11:28:55;14.30;;;6.45;;
10226;SDS011;15634;48.766;2.272;2022-10-31T11:31:22;12.93;;;6.13;;
10226;SDS011;15634;48.766;2.272;2022-10-31T11:33:52;10.27;;;6.70;;
10226;SDS011;15634;48.766;2.272;2022-10-31T11:36:23;14.02;;;6.78;;
10226;SDS011;15634;48.766;2.272;2022-10-31T11:38:51;15.02;;;6.13;;
10226;SDS011;15634;48.766;2.272;2022-10-31T11:41:18;13.43;;;5.72;;
10226;SDS011;15634;48.766;2.272;2022-10-31T11:43:50;14.13;;;6.00;;
10226;SDS011;15634;48.766;2.272;2022-10-31T11:46:19;11.20;;;5.97;;
10226;SDS011;15634;48.766;2.272;2022-10-31T11:48:48;12.40;;;5.95;;
10226;SDS011;15634;48.766;2.272;2022-10-31T11:51:20;13.05;;;5.85;;
10226;SDS011;15634;48.766;2.272;2022-10-31T11:53:51;16.10;;;6.55;;
10226;SDS011;15634;48.766;2.272;2022-10-31T11:56:18;13.57;;;6.18;;
10226;SDS011;15634;48.766;2.272;2022-10-31T11:58:54;15.73;;;6.03;;
10226;SDS011;15634;48.766;2.272;2022-10-31T12:01:23;14.70;;;6.35;;
10226;SDS011;15634;48.766;2.272;2022-10-31T12:03:54;12.45;;;5.88;;
10226;SDS011;15634;48.766;2.272;2022-10-31T12:06:25;12.10;;;5.82;;
10226;SDS011;15634;48.766;2.272;2022-10-31T12:08:57;9.73;;;5.80;;
10226;SDS011;15634;48.766;2.272;2022-10-31T12:11:27;13.15;;;6.20;;
10226;SDS011;15634;48.766;2.272;2022-10-31T12:14:02;13.15;;;6.38;;
10226;SDS011;15634;48.766;2.272;2022-10-31T12:16:36;12.05;;;5.70;;
10226;SDS011;15634;48.766;2.272;2022-10-31T12:19:09;9.32;;;5.43;;
10226;SDS011;15634;48.766;2.272;2022-10-31T12:24:38;15.48;;;6.15;;
10226;SDS011;15634;48.766;2.272;2022-10-31T12:27:13;13.07;;;5.88;;
10226;SDS011;15634;48.766;2.272;2022-10-31T12:29:57;15.18;;;5.95;;
10226;SDS011;15634;48.766;2.272;2022-10-31T12:32:34;13.68;;;6.32;;
10226;SDS011;15634;48.766;2.272;2022-10-31T12:35:08;12.63;;;6.28;;
10226;SDS011;15634;48.766;2.272;2022-10-31T12:37:45;12.65;;;6.18;;
10226;SDS011;15634;48.766;2.272;2022-10-31T12:40:26;11.77;;;6.18;;
10226;SDS011;15634;48.766;2.272;2022-10-31T12:43:05;14.18;;;5.93;;
10226;SDS011;15634;48.766;2.272;2022-10-31T12:45:45;11.40;;;5.78;;
10226;SDS011;15634;48.766;2.272;2022-10-31T12:51:28;13.95;;;6.45;;
10226;SDS011;15634;48.766;2.272;2022-10-31T12:54:04;15.60;;;6.47;;
10226;SDS011;15634;48.766;2.272;2022-10-31T12:56:42;14.00;;;6.03;;
10226;SDS011;15634;48.766;2.272;2022-10-31T12:59:13;15.88;;;6.38;;
10226;SDS011;15634;48.766;2.272;2022-10-31T13:01:45;13.25;;;6.18;;
10226;SDS011;15634;48.766;2.272;2022-10-31T13:04:15;13.07;;;6.05;;
10226;SDS011;15634;48.766;2.272;2022-10-31T13:06:49;12.82;;;6.45;;
10226;SDS011;15634;48.766;2.272;2022-10-31T13:09:18;16.20;;;6.50;;
10226;SDS011;15634;48.766;2.272;2022-10-31T13:11:49;11.02;;;5.80;;
10226;SDS011;15634;48.766;2.272;2022-10-31T13:14:20;11.48;;;6.38;;
10226;SDS011;15634;48.766;2.272;2022-10-31T13:16:50;14.10;;;6.60;;
10226;SDS011;15634;48.766;2.272;2022-10-31T13:19:19;15.02;;;6.68;;
10226;SDS011;15634;48.766;2.272;2022-10-31T13:21:51;11.75;;;6.25;;
10226;SDS011;15634;48.766;2.272;2022-10-31T13:24:22;13.27;;;5.82;;
10226;SDS011;15634;48.766;2.272;2022-10-31T13:26:54;15.50;;;6.13;;
10226;SDS011;15634;48.766;2.272;2022-10-31T13:29:24;15.90;;;6.05;;
10226;SDS011;15634;48.766;2.272;2022-10-31T13:31:53;10.93;;;5.88;;
10226;SDS011;15634;48.766;2.272;2022-10-31T13:34:22;12.13;;;6.68;;
10226;SDS011;15634;48.766;2.272;2022-10-31T13:36:53;15.02;;;6.68;;
10226;SDS011;15634;48.766;2.272;2022-10-31T13:39:31;15.48;;;6.47;;
10226;SDS011;15634;48.766;2.272;2022-10-31T13:42:08;10.65;;;6.28;;
10226;SDS011;15634;48.766;2.272;2022-10-31T13:44:39;20.60;;;6.82;;
10226;SDS011;15634;48.766;2.272;2022-10-31T13:47:20;15.50;;;6.95;;
10226;SDS011;15634;48.766;2.272;2022-10-31T13:49:49;11.50;;;6.57;;
10226;SDS011;15634;48.766;2.272;2022-10-31T13:52:17;13.57;;;6.88;;
10226;SDS011;15634;48.766;2.272;2022-10-31T13:54:49;11.05;;;6.47;;
10226;SDS011;15634;48.766;2.272;2022-10-31T13:57:24;11.45;;;6.50;;
10226;SDS011;15634;48.766;2.272;2022-10-31T13:59:58;16.88;;;6.35;;
10226;SDS011;15634;48.766;2.272;2022-10-31T14:02:26;12.88;;;5.53;;
10226;SDS011;15634;48.766;2.272;2022-10-31T14:04:55;16.13;;;6.40;;
10226;SDS011;15634;48.766;2.272;2022-10-31T14:07:23;17.73;;;6.35;;
10226;SDS011;15634;48.766;2.272;2022-10-31T14:09:52;12.20;;;6.82;;
10226;SDS011;15634;48.766;2.272;2022-10-31T14:12:26;11.50;;;6.43;;
10226;SDS011;15634;48.766;2.272;2022-10-31T14:14:56;12.73;;;6.32;;
10226;SDS011;15634;48.766;2.272;2022-10-31T14:17:25;10.07;;;5.90;;
10226;SDS011;15634;48.766;2.272;2022-10-31T14:20:02;12.07;;;6.07;;
10226;SDS011;15634;48.766;2.272;2022-10-31T14:23:28;12.40;;;6.10;;
10226;SDS011;15634;48.766;2.272;2022-10-31T14:28:47;15.30;;;6.07;;
10226;SDS011;15634;48.766;2.272;2022-10-31T14:31:27;12.23;;;7.70;;
10226;SDS011;15634;48.766;2.272;2022-10-31T14:33:57;16.33;;;9.32;;
10226;SDS011;15634;48.766;2.272;2022-10-31T14:36:25;17.23;;;7.00;;
10226;SDS011;15634;48.766;2.272;2022-10-31T14:38:57;17.83;;;7.18;;
10226;SDS011;15634;48.766;2.272;2022-10-31T14:41:33;12.95;;;6.50;;
10226;SDS011;15634;48.766;2.272;2022-10-31T14:47:22;14.60;;;7.63;;
10226;SDS011;15634;48.766;2.272;2022-10-31T14:52:44;21.23;;;8.43;;
10226;SDS011;15634;48.766;2.272;2022-10-31T14:55:13;16.27;;;6.53;;
10226;SDS011;15634;48.766;2.272;2022-10-31T14:57:43;11.55;;;6.18;;
10226;SDS011;15634;48.766;2.272;2022-10-31T15:00:15;16.63;;;6.18;;
10226;SDS011;15634;48.766;2.272;2022-10-31T15:02:48;15.25;;;7.75;;
10226;SDS011;15634;48.766;2.272;2022-10-31T15:05:19;16.15;;;6.72;;
10226;SDS011;15634;48.766;2.272;2022-10-31T15:07:50;14.70;;;6.22;;
10226;SDS011;15634;48.766;2.272;2022-10-31T15:10:21;17.33;;;6.53;;
10226;SDS011;15634;48.766;2.272;2022-10-31T15:12:49;14.05;;;6.47;;